createdAt,value
2022-09-02T00:02:25.355Z,10.50
2022-09-02T00:04:52.960Z,10.50
2022-09-02T00:07:20.382Z,10.40
2022-09-02T00:09:47.884Z,10.40
2022-09-02T00:12:15.930Z,10.30
2022-09-02T00:14:43.347Z,10.20
2022-09-02T00:17:10.797Z,10.20
2022-09-02T00:19:38.639Z,10.10
2022-09-02T00:22:06.461Z,10.10
2022-09-02T00:24:34.070Z,10.00
2022-09-02T00:27:01.611Z,10.10
2022-09-02T00:29:30.937Z,10.10
2022-09-02T00:31:59.137Z,10.10
2022-09-02T00:34:26.712Z,10.10
2022-09-02T00:36:54.290Z,10.10
2022-09-02T00:39:21.762Z,10.10
2022-09-02T00:41:49.807Z,10.10
2022-09-02T00:44:21.699Z,10.10
2022-09-02T00:46:49.747Z,10.00
2022-09-02T00:49:26.182Z,10.00
2022-09-02T00:52:03.458Z,10.00
2022-09-02T00:54:34.587Z,9.90
2022-09-02T00:57:07.361Z,10.00
2022-09-02T00:59:51.366Z,10.00
2022-09-02T01:02:19.097Z,10.10
2022-09-02T01:04:46.842Z,10.10
2022-09-02T01:07:16.224Z,10.10
2022-09-02T01:09:44.064Z,10.10
2022-09-02T01:12:15.137Z,10.20
2022-09-02T01:14:43.038Z,10.20
2022-09-02T01:17:10.951Z,10.30
2022-09-02T01:19:44.814Z,10.40
2022-09-02T01:22:21.625Z,10.40
2022-09-02T01:24:49.372Z,10.40
2022-09-02T01:27:19.926Z,10.40
2022-09-02T01:29:53.318Z,10.30
2022-09-02T01:32:21.927Z,10.20
2022-09-02T01:34:49.706Z,10.30
2022-09-02T01:37:17.296Z,10.30
2022-09-02T01:39:45.950Z,10.20
2022-09-02T01:42:13.657Z,10.10
2022-09-02T01:44:44.305Z,10.00
2022-09-02T01:47:13.775Z,9.90
2022-09-02T01:49:41.410Z,9.90
2022-09-02T01:52:09.557Z,9.80
2022-09-02T01:54:37.020Z,9.90
2022-09-02T01:57:04.694Z,9.90
2022-09-02T01:59:32.445Z,10.00
2022-09-02T02:02:00.438Z,9.90
2022-09-02T02:04:29.113Z,9.90
2022-09-02T02:06:57.047Z,9.90
2022-09-02T02:09:25.014Z,9.90
2022-09-02T02:11:53.106Z,9.90
2022-09-02T02:14:20.613Z,9.90
2022-09-02T02:16:48.823Z,9.90
2022-09-02T02:19:16.682Z,9.80
2022-09-02T02:21:44.206Z,9.70
2022-09-02T02:24:12.151Z,9.70
2022-09-02T02:26:39.671Z,9.60
2022-09-02T02:29:07.400Z,9.50
2022-09-02T02:31:35.687Z,9.40
2022-09-02T02:34:04.155Z,9.40
2022-09-02T02:36:31.701Z,9.40
2022-09-02T02:39:01.563Z,9.30
2022-09-02T02:41:30.851Z,9.30
2022-09-02T02:43:58.378Z,9.30
2022-09-02T02:46:26.473Z,9.30
2022-09-02T02:48:54.102Z,9.30
2022-09-02T02:51:21.508Z,9.30
2022-09-02T02:53:48.936Z,9.30
2022-09-02T02:56:16.384Z,9.30
2022-09-02T02:58:44.133Z,9.20
2022-09-02T03:01:11.916Z,9.20
2022-09-02T03:03:39.338Z,9.20
2022-09-02T03:06:07.154Z,9.30
2022-09-02T03:08:35.874Z,9.30
2022-09-02T03:11:05.965Z,9.30
2022-09-02T03:13:33.821Z,9.30
2022-09-02T03:16:02.081Z,9.20
2022-09-02T03:18:29.565Z,9.20
2022-09-02T03:20:57.163Z,9.20
2022-09-02T03:23:24.547Z,9.20
2022-09-02T03:25:52.203Z,9.10
2022-09-02T03:28:20.003Z,9.20
2022-09-02T03:30:47.625Z,9.20
2022-09-02T03:33:15.324Z,9.20
2022-09-02T03:35:45.216Z,9.30
2022-09-02T03:38:13.812Z,9.40
2022-09-02T03:40:42.549Z,9.40
2022-09-02T03:43:11.235Z,9.30
2022-09-02T03:45:41.948Z,9.40
2022-09-02T03:48:12.815Z,9.40
2022-09-02T03:50:43.785Z,9.50
2022-09-02T03:53:18.205Z,9.60
2022-09-02T03:55:49.426Z,9.70
2022-09-02T03:58:18.440Z,9.70
2022-09-02T04:00:51.763Z,9.60
2022-09-02T04:03:20.640Z,9.50
2022-09-02T04:05:50.966Z,9.50
2022-09-02T04:08:19.965Z,9.50
2022-09-02T04:10:47.427Z,9.60
2022-09-02T04:13:14.885Z,9.50
2022-09-02T04:15:44.979Z,9.60
2022-09-02T04:18:12.862Z,9.50
2022-09-02T04:20:41.499Z,9.50
2022-09-02T04:23:09.459Z,9.60
2022-09-02T04:25:42.168Z,9.60
2022-09-02T04:28:09.825Z,9.70
2022-09-02T04:30:41.722Z,9.80
2022-09-02T04:33:10.244Z,9.90
2022-09-02T04:35:45.886Z,10.00
2022-09-02T04:38:13.295Z,10.10
2022-09-02T04:40:45.606Z,10.20
2022-09-02T04:43:14.294Z,10.30
2022-09-02T04:45:44.487Z,10.30
2022-09-02T04:48:12.533Z,10.40
2022-09-02T04:50:41.567Z,10.50
2022-09-02T04:53:09.218Z,10.70
2022-09-02T04:55:40.492Z,10.80
2022-09-02T04:58:09.172Z,10.90
2022-09-02T05:00:39.238Z,10.90
2022-09-02T05:03:06.932Z,11.00
2022-09-02T05:05:35.683Z,11.00
2022-09-02T05:08:04.791Z,11.20
2022-09-02T05:10:33.165Z,11.20
2022-09-02T05:13:01.022Z,11.40
2022-09-02T05:15:28.959Z,11.50
2022-09-02T05:17:56.541Z,11.60
2022-09-02T05:20:24.344Z,11.70
2022-09-02T05:22:51.756Z,11.80
2022-09-02T05:25:19.333Z,11.80
2022-09-02T05:27:46.756Z,11.90
2022-09-02T05:30:14.296Z,12.10
2022-09-02T05:32:42.409Z,12.20
2022-09-02T05:35:10.103Z,12.30
2022-09-02T05:37:37.639Z,12.40
2022-09-02T05:40:05.901Z,12.50
2022-09-02T05:42:35.722Z,12.60
2022-09-02T05:45:03.286Z,12.70
2022-09-02T05:47:30.712Z,12.80
2022-09-02T05:49:58.266Z,12.80
2022-09-02T05:52:26.245Z,13.00
2022-09-02T05:54:54.358Z,13.00
2022-09-02T05:57:22.427Z,13.10
2022-09-02T05:59:56.131Z,13.20
2022-09-02T06:02:25.964Z,13.40
2022-09-02T06:04:54.867Z,13.50
2022-09-02T06:07:24.709Z,13.60
2022-09-02T06:09:53.405Z,13.70
2022-09-02T06:12:21.042Z,13.80
2022-09-02T06:14:50.296Z,13.90
2022-09-02T06:17:20.859Z,14.00
2022-09-02T06:19:52.596Z,14.20
2022-09-02T06:22:20.404Z,14.30
2022-09-02T06:24:47.981Z,14.40
2022-09-02T06:27:15.614Z,14.50
2022-09-02T06:29:43.128Z,14.60
2022-09-02T06:32:10.710Z,14.70
2022-09-02T06:34:39.465Z,14.70
2022-09-02T06:37:07.066Z,14.80
2022-09-02T06:39:34.503Z,15.00
2022-09-02T06:42:02.045Z,15.00
2022-09-02T06:44:29.795Z,15.10
2022-09-02T06:47:00.716Z,15.20
2022-09-02T06:49:29.362Z,15.20
2022-09-02T06:51:57.695Z,15.20
2022-09-02T06:54:25.861Z,15.30
2022-09-02T06:56:53.835Z,15.40
2022-09-02T06:59:23.293Z,15.60
2022-09-02T07:01:52.697Z,15.60
2022-09-02T07:04:38.643Z,15.70
2022-09-02T07:07:08.566Z,15.80
2022-09-02T07:09:56.386Z,15.90
2022-09-02T07:12:27.267Z,15.90
2022-09-02T07:14:56.374Z,16.00
2022-09-02T07:17:25.149Z,16.10
2022-09-02T07:19:56.022Z,16.20
2022-09-02T07:22:23.646Z,16.30
2022-09-02T07:24:51.190Z,16.40
2022-09-02T07:27:20.498Z,16.50
2022-09-02T07:29:52.524Z,16.70
2022-09-02T07:32:20.149Z,16.80
2022-09-02T07:34:49.087Z,16.90
2022-09-02T07:37:16.769Z,17.00
2022-09-02T07:39:45.430Z,17.00
2022-09-02T07:42:14.771Z,17.10
2022-09-02T07:44:42.729Z,17.00
2022-09-02T07:47:10.243Z,17.20
2022-09-02T07:52:27.304Z,17.30
2022-09-02T07:54:57.987Z,17.30
2022-09-02T07:57:40.310Z,17.30
2022-09-02T08:00:12.459Z,17.40
2022-09-02T08:02:41.502Z,17.40
2022-09-02T08:05:09.651Z,17.50
2022-09-02T08:07:37.163Z,17.60
2022-09-02T08:10:08.654Z,17.70
2022-09-02T08:12:36.631Z,17.90
2022-09-02T08:15:07.918Z,18.00
2022-09-02T08:17:35.614Z,18.00
2022-09-02T08:20:03.483Z,18.00
2022-09-02T08:22:35.613Z,18.00
2022-09-02T08:25:03.322Z,18.10
2022-09-02T08:27:31.245Z,18.20
2022-09-02T08:30:01.667Z,18.40
2022-09-02T08:32:32.949Z,18.20
2022-09-02T08:35:03.047Z,18.20
2022-09-02T08:37:32.345Z,18.20
2022-09-02T08:40:04.836Z,18.40
2022-09-02T08:42:39.442Z,18.70
2022-09-02T08:45:39.280Z,18.80
2022-09-02T08:48:27.980Z,19.00
2022-09-02T08:51:01.924Z,19.30
2022-09-02T08:53:37.603Z,19.30
2022-09-02T08:56:08.975Z,19.40
2022-09-02T08:58:42.828Z,19.20
2022-09-02T09:01:14.383Z,19.10
2022-09-02T09:04:06.837Z,19.00
2022-09-02T09:06:41.331Z,18.90
2022-09-02T09:09:40.468Z,18.90
2022-09-02T09:12:22.933Z,19.00
2022-09-02T09:14:56.272Z,19.20
2022-09-02T09:17:33.821Z,19.20
2022-09-02T09:20:09.924Z,19.40
2022-09-02T09:22:40.934Z,19.50
2022-09-02T09:25:17.677Z,19.50
2022-09-02T09:27:48.138Z,19.60
2022-09-02T09:30:15.934Z,19.60
2022-09-02T09:32:57.517Z,19.50
2022-09-02T09:35:25.469Z,19.60
2022-09-02T09:37:54.460Z,19.70
2022-09-02T09:40:22.296Z,19.70
2022-09-02T09:42:55.527Z,19.70
2022-09-02T09:45:32.804Z,19.80
2022-09-02T09:48:29.258Z,20.10
2022-09-02T09:51:05.698Z,20.20
2022-09-02T09:53:36.535Z,20.30
2022-09-02T09:56:07.796Z,20.40
2022-09-02T09:58:41.293Z,20.70
2022-09-02T10:01:31.367Z,21.00
2022-09-02T10:04:39.302Z,21.00
2022-09-02T10:06:58.438Z,21.00
2022-09-02T10:09:32.188Z,20.80
2022-09-02T10:12:07.883Z,20.70
2022-09-02T10:14:50.476Z,20.70
2022-09-02T10:17:47.857Z,20.70
2022-09-02T10:20:26.148Z,20.80
2022-09-02T10:23:13.113Z,20.70
2022-09-02T10:26:13.065Z,20.70
2022-09-02T10:29:04.118Z,20.80
2022-09-02T10:31:41.507Z,20.90
2022-09-02T10:34:28.733Z,21.20
2022-09-02T10:37:02.385Z,21.50
2022-09-02T10:39:40.033Z,21.70
2022-09-02T10:42:22.810Z,21.90
2022-09-02T10:45:03.706Z,22.00
2022-09-02T10:47:37.561Z,22.00
2022-09-02T10:50:08.271Z,22.10
2022-09-02T10:52:54.144Z,22.30
2022-09-02T10:55:27.258Z,22.40
2022-09-02T10:57:59.974Z,22.50
2022-09-02T11:00:31.627Z,22.70
2022-09-02T11:03:11.332Z,22.70
2022-09-02T11:05:42.392Z,22.30
2022-09-02T11:08:14.404Z,22.30
2022-09-02T11:11:16.250Z,22.10
2022-09-02T11:13:55.643Z,21.90
2022-09-02T11:16:26.190Z,21.70
2022-09-02T11:19:06.868Z,21.70
2022-09-02T11:21:58.301Z,21.60
2022-09-02T11:24:43.319Z,21.60
2022-09-02T11:27:39.084Z,22.50
2022-09-02T11:30:20.083Z,23.40
2022-09-02T11:33:04.005Z,26.30
2022-09-02T11:35:38.828Z,27.70
2022-09-02T11:38:26.611Z,28.70
2022-09-02T11:41:33.995Z,30.10
2022-09-02T11:44:26.925Z,31.00
2022-09-02T11:47:15.627Z,31.40
2022-09-02T11:50:14.608Z,30.70
2022-09-02T11:53:12.722Z,30.80
2022-09-02T11:56:00.875Z,31.60
2022-09-02T11:58:36.871Z,32.30
2022-09-02T12:01:29.465Z,32.50
2022-09-02T12:05:01.575Z,32.70
2022-09-02T12:07:34.037Z,33.00
2022-09-02T12:10:06.318Z,32.60
2022-09-02T12:12:39.709Z,32.60
2022-09-02T12:15:07.890Z,32.50
2022-09-02T12:17:49.981Z,32.70
2022-09-02T12:20:36.504Z,32.40
2022-09-02T12:23:05.240Z,32.20
2022-09-02T12:25:38.338Z,32.60
2022-09-02T12:28:27.296Z,32.80
2022-09-02T12:31:24.098Z,32.90
2022-09-02T12:33:51.929Z,32.90
2022-09-02T12:36:37.967Z,33.00
2022-09-02T12:39:23.534Z,33.20
2022-09-02T12:42:12.045Z,32.90
2022-09-02T12:45:06.981Z,32.60
2022-09-02T12:47:53.505Z,32.60
2022-09-02T12:50:32.505Z,32.20
2022-09-02T12:53:41.876Z,31.90
2022-09-02T12:56:24.965Z,31.40
2022-09-02T12:59:01.588Z,30.60
2022-09-02T13:01:48.082Z,30.30
2022-09-02T13:04:24.976Z,29.70
2022-09-02T13:07:16.999Z,30.00
2022-09-02T13:09:59.525Z,29.80
2022-09-02T13:12:54.693Z,29.90
2022-09-02T13:15:59.721Z,30.30
2022-09-02T13:18:45.115Z,30.60
2022-09-02T13:21:48.252Z,31.00
2022-09-02T13:24:28.293Z,31.00
2022-09-02T13:27:31.267Z,29.80
2022-09-02T13:30:16.559Z,30.10
2022-09-02T13:32:44.579Z,30.20
2022-09-02T13:35:23.982Z,30.50
2022-09-02T13:38:00.625Z,30.70
2022-09-02T13:40:28.647Z,30.50
2022-09-02T13:43:03.993Z,30.20
2022-09-02T13:45:35.222Z,29.70
2022-09-02T13:48:26.817Z,29.00
2022-09-02T13:50:58.189Z,28.40
2022-09-02T13:53:45.414Z,27.70
2022-09-02T13:56:24.816Z,27.20
2022-09-02T13:58:56.866Z,26.60
2022-09-02T14:01:33.094Z,26.30
2022-09-02T14:04:11.568Z,26.20
2022-09-02T14:06:42.311Z,25.90
2022-09-02T14:09:22.478Z,25.90
2022-09-02T14:11:50.702Z,25.70
2022-09-02T14:14:22.270Z,25.50
2022-09-02T14:16:49.962Z,25.50
2022-09-02T14:19:17.330Z,25.40
2022-09-02T14:21:56.772Z,25.40
2022-09-02T14:24:26.134Z,25.20
2022-09-02T14:26:59.472Z,25.10
2022-09-02T14:29:30.042Z,24.70
2022-09-02T14:32:14.695Z,24.50
2022-09-02T14:34:47.661Z,24.20
2022-09-02T14:37:33.314Z,24.10
2022-09-02T14:40:11.714Z,23.70
2022-09-02T14:42:46.205Z,23.50
2022-09-02T14:45:14.224Z,23.30
2022-09-02T14:47:42.757Z,23.30
2022-09-02T14:50:17.699Z,23.20
2022-09-02T14:52:50.094Z,23.00
2022-09-02T14:55:53.058Z,22.80
2022-09-02T14:58:27.033Z,22.50
2022-09-02T15:00:58.115Z,22.30
2022-09-02T15:03:26.180Z,22.10
2022-09-02T15:05:54.044Z,21.90
2022-09-02T15:08:22.080Z,21.80
2022-09-02T15:10:50.336Z,21.70
2022-09-02T15:13:28.497Z,21.40
2022-09-02T15:15:56.711Z,21.30
2022-09-02T15:18:24.454Z,21.20
2022-09-02T15:20:52.766Z,21.00
2022-09-02T15:23:20.682Z,20.90
2022-09-02T15:25:48.377Z,20.90
2022-09-02T15:28:16.126Z,20.80
2022-09-02T15:30:43.650Z,20.60
2022-09-02T15:33:25.046Z,20.50
2022-09-02T15:35:52.470Z,20.40
2022-09-02T15:38:20.054Z,20.30
2022-09-02T15:40:47.855Z,20.10
2022-09-02T15:43:17.073Z,20.00
2022-09-02T15:45:48.553Z,19.90
2022-09-02T15:48:16.455Z,19.80
2022-09-02T15:50:45.634Z,19.70
2022-09-02T15:53:15.236Z,19.60
2022-09-02T15:55:42.870Z,19.40
2022-09-02T15:58:13.176Z,19.30
2022-09-02T16:00:40.858Z,19.20
2022-09-02T16:03:11.309Z,19.10
2022-09-02T16:05:38.785Z,18.90
2022-09-02T16:08:06.220Z,18.80
2022-09-02T16:10:36.848Z,18.70
2022-09-02T16:13:05.667Z,18.70
2022-09-02T16:15:34.346Z,18.60
2022-09-02T16:18:17.287Z,18.50
2022-09-02T16:20:46.372Z,18.40
2022-09-02T16:23:13.825Z,18.30
2022-09-02T16:25:41.314Z,18.10
2022-09-02T16:28:08.735Z,18.10
2022-09-02T16:30:36.265Z,18.00
2022-09-02T16:33:04.265Z,17.90
2022-09-02T16:35:32.224Z,17.80
2022-09-02T16:37:59.771Z,17.70
2022-09-02T16:40:27.215Z,17.70
2022-09-02T16:42:54.696Z,17.70
2022-09-02T16:45:22.177Z,17.60
2022-09-02T16:47:49.624Z,17.60
2022-09-02T16:50:17.164Z,17.50
2022-09-02T16:52:44.625Z,17.50
2022-09-02T16:55:17.885Z,17.40
2022-09-02T16:57:45.651Z,17.40
2022-09-02T17:00:13.979Z,17.30
2022-09-02T17:02:41.608Z,17.20
2022-09-02T17:05:10.952Z,17.10
2022-09-02T17:07:38.453Z,17.10
2022-09-02T17:10:06.416Z,17.00
2022-09-02T17:12:33.839Z,17.00
2022-09-02T17:15:01.664Z,16.90
2022-09-02T17:17:29.380Z,16.80
2022-09-02T17:19:56.797Z,16.70
2022-09-02T17:22:24.297Z,16.70
2022-09-02T17:24:55.309Z,16.60
2022-09-02T17:27:22.739Z,16.60
2022-09-02T17:29:50.448Z,16.50
2022-09-02T17:32:19.475Z,16.50
2022-09-02T17:34:48.591Z,16.50
2022-09-02T17:37:16.013Z,16.40
2022-09-02T17:39:43.678Z,16.40
2022-09-02T17:42:15.087Z,16.30
2022-09-02T17:44:43.099Z,16.30
2022-09-02T17:47:14.392Z,16.30
2022-09-02T17:49:44.810Z,16.20
2022-09-02T17:52:18.741Z,16.20
2022-09-02T17:54:49.826Z,16.10
2022-09-02T17:57:20.324Z,16.10
2022-09-02T17:59:59.117Z,16.00
2022-09-02T18:03:09.548Z,16.00
2022-09-02T18:05:55.214Z,15.90
2022-09-02T18:08:32.376Z,15.90
2022-09-02T18:11:04.700Z,15.90
2022-09-02T18:13:41.392Z,15.80
2022-09-02T18:16:32.476Z,15.80
2022-09-02T18:19:16.363Z,15.80
2022-09-02T18:22:14.676Z,15.80
2022-09-02T18:25:03.406Z,15.80
2022-09-02T18:27:44.242Z,15.70
2022-09-02T18:30:34.167Z,15.70
2022-09-02T18:33:38.574Z,15.70
2022-09-02T18:36:20.549Z,15.70
2022-09-02T18:39:32.516Z,15.70
2022-09-02T18:43:00.189Z,15.60
2022-09-02T18:45:59.003Z,15.60
2022-09-02T18:48:33.173Z,15.50
2022-09-02T18:51:24.355Z,15.50
2022-09-02T18:54:05.468Z,15.50
2022-09-02T18:56:36.397Z,15.50
2022-09-02T18:59:11.495Z,15.50
2022-09-02T19:01:46.254Z,15.40
2022-09-02T19:04:15.441Z,15.40
2022-09-02T19:06:42.920Z,15.40
2022-09-02T19:09:14.266Z,15.30
2022-09-02T19:11:42.201Z,15.30
2022-09-02T19:14:26.661Z,15.30
2022-09-02T19:16:55.797Z,15.30
2022-09-02T19:19:23.312Z,15.20
2022-09-02T19:21:58.252Z,15.10
2022-09-02T19:24:34.247Z,15.10
2022-09-02T19:27:15.285Z,15.10
2022-09-02T19:29:50.056Z,15.10
2022-09-02T19:32:24.910Z,15.00
2022-09-02T19:34:52.968Z,15.00
2022-09-02T19:37:20.720Z,15.00
2022-09-02T19:39:51.426Z,14.90
2022-09-02T19:42:20.786Z,14.90
2022-09-02T19:44:52.305Z,14.90
2022-09-02T19:48:05.038Z,14.90
2022-09-02T19:50:08.479Z,14.90
2022-09-02T19:52:45.055Z,14.90
2022-09-02T19:55:15.475Z,14.90
2022-09-02T19:57:43.415Z,14.90
2022-09-02T20:00:12.930Z,14.90
2022-09-02T20:02:41.357Z,14.90
2022-09-02T20:05:10.677Z,14.80
2022-09-02T20:07:38.803Z,14.80
2022-09-02T20:10:07.659Z,14.90
2022-09-02T20:12:36.486Z,14.80
2022-09-02T20:15:06.808Z,14.80
2022-09-02T20:17:34.797Z,14.80
2022-09-02T20:20:11.735Z,14.80
2022-09-02T20:22:39.233Z,14.80
2022-09-02T20:25:06.853Z,14.90
2022-09-02T20:27:43.254Z,14.80
2022-09-02T20:30:16.038Z,14.80
2022-09-02T20:33:10.752Z,14.80
2022-09-02T20:36:04.750Z,14.80
2022-09-02T20:38:50.022Z,14.80
2022-09-02T20:41:34.436Z,14.80
2022-09-02T20:44:07.017Z,14.80
2022-09-02T20:46:41.077Z,14.80
2022-09-02T20:49:16.381Z,14.80
2022-09-02T20:52:05.260Z,14.80
2022-09-02T20:54:40.884Z,14.80
2022-09-02T20:57:17.450Z,14.80
2022-09-02T21:00:10.044Z,14.80
2022-09-02T21:03:11.100Z,14.70
2022-09-02T21:05:44.091Z,14.60
2022-09-02T21:08:38.964Z,14.60
2022-09-02T21:11:13.176Z,14.60
2022-09-02T21:14:05.692Z,14.50
2022-09-02T21:16:42.973Z,14.40
2022-09-02T21:19:23.200Z,14.40
2022-09-02T21:21:53.924Z,14.40
2022-09-02T21:24:55.061Z,14.40
2022-09-02T21:27:31.657Z,14.30
2022-09-02T21:30:06.904Z,14.30
2022-09-02T21:32:49.746Z,14.40
2022-09-02T21:35:24.419Z,14.30
2022-09-02T21:37:59.217Z,14.30
2022-09-02T21:40:45.629Z,14.20
2022-09-02T21:43:28.445Z,14.30
2022-09-02T21:46:20.143Z,14.30
2022-09-02T21:49:13.359Z,14.30
2022-09-02T21:52:10.568Z,14.30
2022-09-02T21:54:41.146Z,14.30
2022-09-02T21:57:34.462Z,14.30
2022-09-02T22:00:08.962Z,14.30
2022-09-02T22:02:51.458Z,14.30
2022-09-02T22:05:33.063Z,14.40
2022-09-02T22:08:15.631Z,14.40
2022-09-02T22:10:54.978Z,14.40
2022-09-02T22:13:24.403Z,14.40
2022-09-02T22:16:05.266Z,14.40
2022-09-02T22:18:38.173Z,14.40
2022-09-02T22:21:11.598Z,14.40
2022-09-02T22:23:40.046Z,14.40
2022-09-02T22:26:28.938Z,14.30
2022-09-02T22:29:04.831Z,14.30
2022-09-02T22:31:36.183Z,14.30
2022-09-02T22:34:08.068Z,14.40
2022-09-02T22:36:52.316Z,14.40
2022-09-02T22:39:25.114Z,14.30
2022-09-02T22:42:21.528Z,14.30
2022-09-02T22:45:16.956Z,14.30
2022-09-02T22:48:10.319Z,14.30
2022-09-02T22:51:02.458Z,14.30
2022-09-02T22:53:30.310Z,14.30
2022-09-02T22:56:03.650Z,14.30
2022-09-02T22:58:48.206Z,14.30
2022-09-02T23:01:51.724Z,14.30
2022-09-02T23:04:29.070Z,14.20
2022-09-02T23:07:01.918Z,14.30
2022-09-02T23:09:30.778Z,14.30
2022-09-02T23:12:20.003Z,14.20
2022-09-02T23:14:52.535Z,14.20
2022-09-02T23:17:34.830Z,14.20
2022-09-02T23:20:25.514Z,14.20
2022-09-02T23:23:14.515Z,14.20
2022-09-02T23:26:09.851Z,14.10
2022-09-02T23:29:00.349Z,14.20
2022-09-02T23:31:53.541Z,14.20
2022-09-02T23:34:27.148Z,14.10
2022-09-02T23:37:13.059Z,14.20
2022-09-02T23:39:52.306Z,14.20
2022-09-02T23:42:20.152Z,14.30
2022-09-02T23:44:48.121Z,14.30
2022-09-02T23:47:24.408Z,14.30
2022-09-02T23:50:28.539Z,14.30
2022-09-02T23:53:28.371Z,14.30
2022-09-02T23:56:33.470Z,14.30
2022-09-02T23:59:09.147Z,14.30
